sensor_id;sensor_type;location;lat;lon;timestamp;pressure;altitude;pressure_sealevel;temperature;humidity
10652;BME280;5374;42.742;23.266;2023-08-24T03:42:47;95557.53;;;20.85;89.63
10652;BME280;5374;42.742;23.266;2023-08-24T03:45:34;95570.28;;;20.93;89.55
10652;BME280;5374;42.742;23.266;2023-08-24T03:48:21;95550.81;;;20.74;89.28
10652;BME280;5374;42.742;23.266;2023-08-24T03:51:08;95577.88;;;20.91;88.98
10652;BME280;5374;42.742;23.266;2023-08-24T03:53:56;95577.56;;;20.93;88.34
10652;BME280;5374;42.742;23.266;2023-08-24T03:56:43;95583.28;;;20.91;88.52
10652;BME280;5374;42.742;23.266;2023-08-24T03:59:31;95583.78;;;20.93;88.45
10652;BME280;5374;42.742;23.266;2023-08-24T04:02:18;95572.19;;;20.93;88.61
10652;BME280;5374;42.742;23.266;2023-08-24T04:05:06;95579.34;;;20.97;88.89
10652;BME280;5374;42.742;23.266;2023-08-24T04:07:54;95580.28;;;20.93;89.12
10652;BME280;5374;42.742;23.266;2023-08-24T04:10:41;95561.88;;;20.95;89.09
10652;BME280;5374;42.742;23.266;2023-08-24T04:13:28;95564.44;;;21.00;89.12
10652;BME280;5374;42.742;23.266;2023-08-24T04:16:17;95568.72;;;21.09;89.30
10652;BME280;5374;42.742;23.266;2023-08-24T04:19:04;95570.38;;;21.19;89.19
10652;BME280;5374;42.742;23.266;2023-08-24T04:21:51;95580.41;;;21.27;88.50
10652;BME280;5374;42.742;23.266;2023-08-24T04:24:38;95587.75;;;21.35;87.97
10652;BME280;5374;42.742;23.266;2023-08-24T04:27:25;95577.28;;;21.42;86.90
10652;BME280;5374;42.742;23.266;2023-08-24T04:30:12;95595.28;;;21.64;86.26
10652;BME280;5374;42.742;23.266;2023-08-24T04:33:02;95597.06;;;21.69;85.55
10652;BME280;5374;42.742;23.266;2023-08-24T04:35:50;95578.91;;;21.78;84.58
10652;BME280;5374;42.742;23.266;2023-08-24T04:38:37;95571.94;;;21.86;84.11
10652;BME280;5374;42.742;23.266;2023-08-24T04:41:24;95557.75;;;21.97;83.50
10652;BME280;5374;42.742;23.266;2023-08-24T04:44:11;95576.63;;;22.75;79.76
10652;BME280;5374;42.742;23.266;2023-08-24T04:46:58;95562.13;;;23.17;77.35
10652;BME280;5374;42.742;23.266;2023-08-24T04:49:47;95572.28;;;23.50;74.69
10652;BME280;5374;42.742;23.266;2023-08-24T04:52:34;95570.44;;;23.42;74.66
10652;BME280;5374;42.742;23.266;2023-08-24T04:55:22;95569.22;;;23.31;75.09
10652;BME280;5374;42.742;23.266;2023-08-24T04:58:10;95588.91;;;23.19;75.46
10652;BME280;5374;42.742;23.266;2023-08-24T05:00:58;95583.03;;;23.08;76.05
10652;BME280;5374;42.742;23.266;2023-08-24T05:03:46;95591.38;;;23.03;76.47
10652;BME280;5374;42.742;23.266;2023-08-24T05:06:34;95585.94;;;23.03;75.89
10652;BME280;5374;42.742;23.266;2023-08-24T05:09:22;95591.53;;;22.98;76.34
10652;BME280;5374;42.742;23.266;2023-08-24T05:12:09;95590.28;;;22.96;76.21
10652;BME280;5374;42.742;23.266;2023-08-24T05:14:56;95597.44;;;23.00;76.93
10652;BME280;5374;42.742;23.266;2023-08-24T05:17:44;95595.03;;;22.99;77.58
10652;BME280;5374;42.742;23.266;2023-08-24T05:20:31;95592.50;;;23.02;77.50
10652;BME280;5374;42.742;23.266;2023-08-24T05:23:19;95595.78;;;23.08;76.58
10652;BME280;5374;42.742;23.266;2023-08-24T05:26:07;95606.81;;;23.03;76.74
10652;BME280;5374;42.742;23.266;2023-08-24T05:28:54;95601.72;;;23.01;77.34
10652;BME280;5374;42.742;23.266;2023-08-24T05:31:41;95611.88;;;23.13;77.17
10652;BME280;5374;42.742;23.266;2023-08-24T05:34:28;95607.38;;;23.26;76.15
10652;BME280;5374;42.742;23.266;2023-08-24T05:37:16;95601.28;;;23.29;75.31
10652;BME280;5374;42.742;23.266;2023-08-24T05:40:05;95611.09;;;23.42;74.04
10652;BME280;5374;42.742;23.266;2023-08-24T05:42:53;95611.56;;;23.44;74.02
10652;BME280;5374;42.742;23.266;2023-08-24T05:45:40;95628.53;;;23.70;74.68
10652;BME280;5374;42.742;23.266;2023-08-24T05:48:30;95623.47;;;23.90;73.64
10652;BME280;5374;42.742;23.266;2023-08-24T05:51:17;95613.66;;;24.18;72.37
10652;BME280;5374;42.742;23.266;2023-08-24T05:54:04;95586.28;;;24.32;70.09
10652;BME280;5374;42.742;23.266;2023-08-24T05:56:53;95616.13;;;24.98;68.89
10652;BME280;5374;42.742;23.266;2023-08-24T05:59:40;95609.94;;;25.34;67.13
10652;BME280;5374;42.742;23.266;2023-08-24T06:02:27;95614.75;;;25.73;66.03
10652;BME280;5374;42.742;23.266;2023-08-24T06:05:14;95614.97;;;26.61;62.32
10652;BME280;5374;42.742;23.266;2023-08-24T06:08:03;95609.25;;;27.72;57.75
10652;BME280;5374;42.742;23.266;2023-08-24T06:10:51;95607.44;;;27.96;56.26
10652;BME280;5374;42.742;23.266;2023-08-24T06:13:39;95612.47;;;27.94;56.52
10652;BME280;5374;42.742;23.266;2023-08-24T06:16:27;95602.00;;;27.80;56.12
10652;BME280;5374;42.742;23.266;2023-08-24T06:19:14;95615.06;;;28.06;56.56
10652;BME280;5374;42.742;23.266;2023-08-24T06:22:01;95595.78;;;28.34;55.47
10652;BME280;5374;42.742;23.266;2023-08-24T06:24:48;95590.69;;;28.32;54.02
10652;BME280;5374;42.742;23.266;2023-08-24T06:27:36;95607.50;;;28.53;53.49
10652;BME280;5374;42.742;23.266;2023-08-24T06:30:24;95608.50;;;28.65;52.69
10652;BME280;5374;42.742;23.266;2023-08-24T06:33:11;95621.28;;;28.80;52.17
10652;BME280;5374;42.742;23.266;2023-08-24T06:35:58;95622.09;;;29.22;51.55
10652;BME280;5374;42.742;23.266;2023-08-24T06:38:45;95629.34;;;29.34;50.57
10652;BME280;5374;42.742;23.266;2023-08-24T06:41:33;95617.53;;;29.53;49.14
10652;BME280;5374;42.742;23.266;2023-08-24T06:44:20;95623.88;;;29.83;49.24
10652;BME280;5374;42.742;23.266;2023-08-24T06:47:09;95621.78;;;30.26;48.67
10652;BME280;5374;42.742;23.266;2023-08-24T06:49:56;95623.00;;;30.32;47.15
10652;BME280;5374;42.742;23.266;2023-08-24T06:52:43;95619.25;;;30.14;47.39
10652;BME280;5374;42.742;23.266;2023-08-24T06:55:30;95609.97;;;29.96;47.29
10652;BME280;5374;42.742;23.266;2023-08-24T06:58:17;95617.03;;;29.97;48.03
10652;BME280;5374;42.742;23.266;2023-08-24T07:01:04;95617.00;;;30.53;47.60
10652;BME280;5374;42.742;23.266;2023-08-24T07:03:54;95628.72;;;31.13;44.38
10652;BME280;5374;42.742;23.266;2023-08-24T07:06:41;95628.16;;;31.89;42.69
10652;BME280;5374;42.742;23.266;2023-08-24T07:09:29;95628.09;;;32.40;42.69
10652;BME280;5374;42.742;23.266;2023-08-24T07:12:16;95625.97;;;32.99;41.09
10652;BME280;5374;42.742;23.266;2023-08-24T07:15:04;95623.28;;;33.24;41.05
10652;BME280;5374;42.742;23.266;2023-08-24T07:17:52;95613.09;;;33.67;39.97
10652;BME280;5374;42.742;23.266;2023-08-24T07:20:40;95616.19;;;34.26;38.95
10652;BME280;5374;42.742;23.266;2023-08-24T07:23:27;95617.22;;;34.68;37.29
10652;BME280;5374;42.742;23.266;2023-08-24T07:26:15;95614.41;;;34.89;36.86
10652;BME280;5374;42.742;23.266;2023-08-24T07:29:02;95607.97;;;35.06;36.33
10652;BME280;5374;42.742;23.266;2023-08-24T07:31:49;95613.03;;;35.18;36.19
10652;BME280;5374;42.742;23.266;2023-08-24T07:34:37;95608.09;;;35.47;35.59
10652;BME280;5374;42.742;23.266;2023-08-24T07:37:25;95611.41;;;35.76;34.63
10652;BME280;5374;42.742;23.266;2023-08-24T07:40:13;95599.44;;;35.93;34.78
10652;BME280;5374;42.742;23.266;2023-08-24T07:43:00;95615.25;;;36.34;34.21
10652;BME280;5374;42.742;23.266;2023-08-24T07:45:47;95609.22;;;36.43;33.31
10652;BME280;5374;42.742;23.266;2023-08-24T07:48:35;95601.28;;;36.45;33.71
10652;BME280;5374;42.742;23.266;2023-08-24T07:51:23;95606.34;;;36.53;33.72
10652;BME280;5374;42.742;23.266;2023-08-24T07:54:11;95604.06;;;36.45;33.05
10652;BME280;5374;42.742;23.266;2023-08-24T07:56:58;95589.44;;;36.44;33.21
10652;BME280;5374;42.742;23.266;2023-08-24T07:59:45;95599.41;;;36.69;33.25
10652;BME280;5374;42.742;23.266;2023-08-24T08:02:32;95596.50;;;36.83;32.15
10652;BME280;5374;42.742;23.266;2023-08-24T08:05:20;95599.78;;;36.74;32.19
10652;BME280;5374;42.742;23.266;2023-08-24T08:08:08;95605.81;;;36.62;31.78
10652;BME280;5374;42.742;23.266;2023-08-24T08:11:00;95600.59;;;36.68;31.79
10652;BME280;5374;42.742;23.266;2023-08-24T08:13:48;95610.16;;;36.63;31.66
10652;BME280;5374;42.742;23.266;2023-08-24T08:16:35;95603.75;;;36.70;31.37
10652;BME280;5374;42.742;23.266;2023-08-24T08:19:22;95606.00;;;36.82;32.07
10652;BME280;5374;42.742;23.266;2023-08-24T08:22:12;95591.41;;;36.78;30.92
10652;BME280;5374;42.742;23.266;2023-08-24T08:25:00;95595.09;;;36.64;31.38
10652;BME280;5374;42.742;23.266;2023-08-24T08:27:49;95587.97;;;36.67;31.36
10652;BME280;5374;42.742;23.266;2023-08-24T08:30:36;95593.88;;;36.69;31.24
10652;BME280;5374;42.742;23.266;2023-08-24T08:33:23;95582.63;;;36.52;31.12
10652;BME280;5374;42.742;23.266;2023-08-24T08:36:10;95578.69;;;36.50;32.07
10652;BME280;5374;42.742;23.266;2023-08-24T08:38:58;95578.47;;;36.37;32.56
10652;BME280;5374;42.742;23.266;2023-08-24T08:41:45;95577.84;;;36.56;32.66
10652;BME280;5374;42.742;23.266;2023-08-24T08:44:34;95574.88;;;36.71;31.51
10652;BME280;5374;42.742;23.266;2023-08-24T08:47:21;95574.41;;;36.79;30.76
10652;BME280;5374;42.742;23.266;2023-08-24T08:50:09;95565.81;;;36.67;30.50
10652;BME280;5374;42.742;23.266;2023-08-24T08:52:57;95567.63;;;36.50;30.63
10652;BME280;5374;42.742;23.266;2023-08-24T08:55:44;95556.41;;;36.60;31.29
10652;BME280;5374;42.742;23.266;2023-08-24T08:58:32;95563.75;;;36.78;31.22
10652;BME280;5374;42.742;23.266;2023-08-24T09:01:24;95557.75;;;36.83;30.63
10652;BME280;5374;42.742;23.266;2023-08-24T09:04:12;95551.47;;;36.79;30.85
10652;BME280;5374;42.742;23.266;2023-08-24T09:06:59;95549.59;;;36.99;31.01
10652;BME280;5374;42.742;23.266;2023-08-24T09:09:49;95543.50;;;37.08;30.51
10652;BME280;5374;42.742;23.266;2023-08-24T09:12:36;95531.34;;;37.02;31.16
10652;BME280;5374;42.742;23.266;2023-08-24T09:15:24;95519.50;;;37.01;31.51
10652;BME280;5374;42.742;23.266;2023-08-24T09:18:13;95525.41;;;37.03;31.73
10652;BME280;5374;42.742;23.266;2023-08-24T09:21:07;95519.63;;;37.17;30.70
10652;BME280;5374;42.742;23.266;2023-08-24T09:23:55;95519.41;;;37.31;31.03
10652;BME280;5374;42.742;23.266;2023-08-24T09:26:42;95522.84;;;37.39;31.74
10652;BME280;5374;42.742;23.266;2023-08-24T09:29:36;95517.25;;;37.43;30.74
10652;BME280;5374;42.742;23.266;2023-08-24T09:32:23;95514.69;;;37.52;30.95
10652;BME280;5374;42.742;23.266;2023-08-24T09:35:12;95483.88;;;37.50;30.24
10652;BME280;5374;42.742;23.266;2023-08-24T09:38:01;95499.09;;;37.61;30.47
10652;BME280;5374;42.742;23.266;2023-08-24T09:40:50;95504.97;;;37.67;30.49
10652;BME280;5374;42.742;23.266;2023-08-24T09:43:40;95499.44;;;37.67;30.14
10652;BME280;5374;42.742;23.266;2023-08-24T09:46:27;95488.06;;;37.58;30.07
10652;BME280;5374;42.742;23.266;2023-08-24T09:49:14;95488.78;;;37.62;30.59
10652;BME280;5374;42.742;23.266;2023-08-24T09:52:07;95483.50;;;37.71;29.40
10652;BME280;5374;42.742;23.266;2023-08-24T09:54:54;95481.66;;;37.84;30.89
10652;BME280;5374;42.742;23.266;2023-08-24T09:57:42;95481.53;;;37.91;29.89
10652;BME280;5374;42.742;23.266;2023-08-24T10:00:31;95465.88;;;37.81;29.92
10652;BME280;5374;42.742;23.266;2023-08-24T10:03:19;95476.91;;;37.85;29.26
10652;BME280;5374;42.742;23.266;2023-08-24T10:06:09;95473.13;;;37.52;29.74
10652;BME280;5374;42.742;23.266;2023-08-24T10:09:02;95474.19;;;37.81;30.00
10652;BME280;5374;42.742;23.266;2023-08-24T10:11:55;95459.06;;;38.06;30.49
10652;BME280;5374;42.742;23.266;2023-08-24T10:14:49;95459.47;;;38.24;28.29
10652;BME280;5374;42.742;23.266;2023-08-24T10:17:40;95456.63;;;38.27;29.92
10652;BME280;5374;42.742;23.266;2023-08-24T10:20:28;95463.09;;;38.41;28.35
10652;BME280;5374;42.742;23.266;2023-08-24T10:23:18;95464.75;;;38.38;28.26
10652;BME280;5374;42.742;23.266;2023-08-24T10:26:07;95473.44;;;38.40;28.68
10652;BME280;5374;42.742;23.266;2023-08-24T10:28:55;95455.81;;;38.11;29.39
10652;BME280;5374;42.742;23.266;2023-08-24T10:31:44;95447.84;;;37.73;28.83
10652;BME280;5374;42.742;23.266;2023-08-24T10:34:31;95462.84;;;37.29;29.27
10652;BME280;5374;42.742;23.266;2023-08-24T10:37:25;95455.78;;;36.78;29.59
10652;BME280;5374;42.742;23.266;2023-08-24T10:40:13;95463.41;;;36.40;30.58
10652;BME280;5374;42.742;23.266;2023-08-24T10:43:04;95477.94;;;35.42;32.42
10652;BME280;5374;42.742;23.266;2023-08-24T10:45:58;95477.94;;;34.20;34.60
10652;BME280;5374;42.742;23.266;2023-08-24T10:48:58;95480.88;;;33.56;35.56
10652;BME280;5374;42.742;23.266;2023-08-24T10:51:46;95475.41;;;33.14;36.46
10652;BME280;5374;42.742;23.266;2023-08-24T10:54:42;95467.16;;;32.82;36.90
10652;BME280;5374;42.742;23.266;2023-08-24T10:57:37;95462.00;;;32.59;37.55
10652;BME280;5374;42.742;23.266;2023-08-24T11:00:29;95485.56;;;32.53;37.07
10652;BME280;5374;42.742;23.266;2023-08-24T11:03:30;95470.06;;;32.09;35.29
10652;BME280;5374;42.742;23.266;2023-08-24T11:06:19;95457.03;;;31.81;35.16
10652;BME280;5374;42.742;23.266;2023-08-24T11:09:07;95458.13;;;31.66;35.82
10652;BME280;5374;42.742;23.266;2023-08-24T11:12:00;95452.91;;;31.47;36.68
10652;BME280;5374;42.742;23.266;2023-08-24T11:14:49;95464.22;;;31.35;37.54
10652;BME280;5374;42.742;23.266;2023-08-24T11:17:41;95466.56;;;31.36;38.72
10652;BME280;5374;42.742;23.266;2023-08-24T11:20:28;95452.72;;;31.18;38.56
10652;BME280;5374;42.742;23.266;2023-08-24T11:23:17;95451.13;;;31.14;39.03
10652;BME280;5374;42.742;23.266;2023-08-24T11:26:04;95462.94;;;31.18;40.01
10652;BME280;5374;42.742;23.266;2023-08-24T11:28:53;95473.72;;;31.00;39.28
10652;BME280;5374;42.742;23.266;2023-08-24T11:31:41;95465.38;;;30.86;39.58
10652;BME280;5374;42.742;23.266;2023-08-24T11:34:29;95455.03;;;30.65;39.76
10652;BME280;5374;42.742;23.266;2023-08-24T11:37:19;95471.41;;;30.58;40.58
10652;BME280;5374;42.742;23.266;2023-08-24T11:40:16;95460.91;;;30.30;42.31
10652;BME280;5374;42.742;23.266;2023-08-24T11:43:04;95467.91;;;30.24;43.37
10652;BME280;5374;42.742;23.266;2023-08-24T11:45:53;95466.94;;;30.09;44.18
10652;BME280;5374;42.742;23.266;2023-08-24T11:48:41;95460.41;;;29.87;46.27
10652;BME280;5374;42.742;23.266;2023-08-24T11:51:30;95446.78;;;29.61;46.71
10652;BME280;5374;42.742;23.266;2023-08-24T11:54:19;95446.66;;;29.50;47.10
10652;BME280;5374;42.742;23.266;2023-08-24T11:57:06;95438.63;;;29.38;48.17
10652;BME280;5374;42.742;23.266;2023-08-24T11:59:54;95435.38;;;29.29;48.50
10652;BME280;5374;42.742;23.266;2023-08-24T12:02:41;95447.72;;;29.19;49.35
10652;BME280;5374;42.742;23.266;2023-08-24T12:05:29;95439.03;;;29.10;49.85
10652;BME280;5374;42.742;23.266;2023-08-24T12:08:17;95431.66;;;29.14;50.89
10652;BME280;5374;42.742;23.266;2023-08-24T12:11:10;95412.97;;;29.20;50.91
10652;BME280;5374;42.742;23.266;2023-08-24T12:13:57;95407.66;;;29.04;51.61
10652;BME280;5374;42.742;23.266;2023-08-24T12:16:44;95403.19;;;29.19;52.11
10652;BME280;5374;42.742;23.266;2023-08-24T12:19:32;95405.53;;;29.20;51.84
10652;BME280;5374;42.742;23.266;2023-08-24T12:22:19;95396.22;;;29.25;51.62
10652;BME280;5374;42.742;23.266;2023-08-24T12:25:08;95397.13;;;29.33;51.34
10652;BME280;5374;42.742;23.266;2023-08-24T12:28:08;95394.22;;;29.48;51.66
10652;BME280;5374;42.742;23.266;2023-08-24T12:30:56;95412.44;;;29.67;50.96
10652;BME280;5374;42.742;23.266;2023-08-24T12:33:58;95413.31;;;29.75;50.29
10652;BME280;5374;42.742;23.266;2023-08-24T12:36:46;95425.69;;;29.95;51.22
10652;BME280;5374;42.742;23.266;2023-08-24T12:39:35;95416.78;;;30.02;50.54
10652;BME280;5374;42.742;23.266;2023-08-24T12:42:23;95424.31;;;30.12;49.39
10652;BME280;5374;42.742;23.266;2023-08-24T12:45:10;95415.06;;;30.23;49.21
10652;BME280;5374;42.742;23.266;2023-08-24T12:47:58;95407.78;;;30.42;49.57
10652;BME280;5374;42.742;23.266;2023-08-24T12:50:45;95413.78;;;30.54;48.12
10652;BME280;5374;42.742;23.266;2023-08-24T12:53:32;95421.88;;;30.40;48.23
10652;BME280;5374;42.742;23.266;2023-08-24T12:56:19;95413.91;;;30.28;48.24
10652;BME280;5374;42.742;23.266;2023-08-24T12:59:08;95415.94;;;30.35;48.46
10652;BME280;5374;42.742;23.266;2023-08-24T13:01:55;95437.78;;;30.24;47.96
10652;BME280;5374;42.742;23.266;2023-08-24T13:04:42;95425.19;;;30.19;48.40
10652;BME280;5374;42.742;23.266;2023-08-24T13:07:29;95439.34;;;30.25;49.47
10652;BME280;5374;42.742;23.266;2023-08-24T13:10:17;95429.94;;;30.22;49.02
10652;BME280;5374;42.742;23.266;2023-08-24T13:13:04;95420.09;;;30.18;49.79
10652;BME280;5374;42.742;23.266;2023-08-24T13:15:52;95423.38;;;30.34;50.28
10652;BME280;5374;42.742;23.266;2023-08-24T13:18:39;95420.34;;;30.43;50.04
10652;BME280;5374;42.742;23.266;2023-08-24T13:21:26;95430.50;;;30.42;50.06
10652;BME280;5374;42.742;23.266;2023-08-24T13:24:14;95414.16;;;30.53;48.88
10652;BME280;5374;42.742;23.266;2023-08-24T13:27:01;95420.94;;;30.63;48.76
10652;BME280;5374;42.742;23.266;2023-08-24T13:29:48;95419.00;;;30.67;48.95
10652;BME280;5374;42.742;23.266;2023-08-24T13:32:37;95428.22;;;30.51;48.67
10652;BME280;5374;42.742;23.266;2023-08-24T13:35:24;95417.78;;;30.60;48.92
10652;BME280;5374;42.742;23.266;2023-08-24T13:38:11;95413.06;;;30.61;47.66
10652;BME280;5374;42.742;23.266;2023-08-24T13:40:59;95418.41;;;30.47;47.89
10652;BME280;5374;42.742;23.266;2023-08-24T13:43:46;95423.53;;;30.52;47.62
10652;BME280;5374;42.742;23.266;2023-08-24T13:46:33;95424.41;;;30.59;46.85
10652;BME280;5374;42.742;23.266;2023-08-24T13:49:21;95432.97;;;30.54;46.67
10652;BME280;5374;42.742;23.266;2023-08-24T13:52:08;95431.44;;;30.57;46.71
10652;BME280;5374;42.742;23.266;2023-08-24T13:54:58;95434.63;;;30.63;45.87
10652;BME280;5374;42.742;23.266;2023-08-24T13:57:48;95449.53;;;30.65;45.64
10652;BME280;5374;42.742;23.266;2023-08-24T14:00:36;95453.06;;;30.66;45.45
10652;BME280;5374;42.742;23.266;2023-08-24T14:03:23;95461.34;;;30.73;44.54
10652;BME280;5374;42.742;23.266;2023-08-24T14:06:12;95454.06;;;30.91;45.24
10652;BME280;5374;42.742;23.266;2023-08-24T14:08:59;95445.81;;;30.87;45.10
10652;BME280;5374;42.742;23.266;2023-08-24T14:11:48;95445.09;;;30.98;44.20
10652;BME280;5374;42.742;23.266;2023-08-24T14:14:35;95425.50;;;30.99;44.85
10652;BME280;5374;42.742;23.266;2023-08-24T14:17:22;95436.66;;;31.17;44.49
10652;BME280;5374;42.742;23.266;2023-08-24T14:20:10;95428.03;;;31.15;44.19
10652;BME280;5374;42.742;23.266;2023-08-24T14:22:59;95432.34;;;31.19;44.87
10652;BME280;5374;42.742;23.266;2023-08-24T14:25:47;95422.53;;;31.15;44.84
10652;BME280;5374;42.742;23.266;2023-08-24T14:28:47;95427.63;;;31.13;43.65
10652;BME280;5374;42.742;23.266;2023-08-24T14:31:35;95413.03;;;31.09;43.72
10652;BME280;5374;42.742;23.266;2023-08-24T14:34:22;95417.03;;;31.18;43.15
10652;BME280;5374;42.742;23.266;2023-08-24T14:37:09;95417.56;;;31.35;43.46
10652;BME280;5374;42.742;23.266;2023-08-24T14:39:57;95423.88;;;31.46;42.84
10652;BME280;5374;42.742;23.266;2023-08-24T14:42:44;95408.63;;;31.52;42.66
10652;BME280;5374;42.742;23.266;2023-08-24T14:45:32;95406.31;;;31.61;42.29
10652;BME280;5374;42.742;23.266;2023-08-24T14:48:19;95411.06;;;31.71;42.17
10652;BME280;5374;42.742;23.266;2023-08-24T14:51:06;95401.69;;;31.79;42.32
10652;BME280;5374;42.742;23.266;2023-08-24T14:53:53;95405.25;;;31.87;42.40
10652;BME280;5374;42.742;23.266;2023-08-24T14:56:42;95406.84;;;31.91;43.15
10652;BME280;5374;42.742;23.266;2023-08-24T14:59:29;95400.91;;;31.86;42.99
10652;BME280;5374;42.742;23.266;2023-08-24T15:02:16;95400.16;;;31.89;43.15
10652;BME280;5374;42.742;23.266;2023-08-24T15:05:04;95397.81;;;31.91;43.02
10652;BME280;5374;42.742;23.266;2023-08-24T15:07:51;95400.94;;;31.93;42.74
10652;BME280;5374;42.742;23.266;2023-08-24T15:10:38;95403.69;;;31.82;42.30
10652;BME280;5374;42.742;23.266;2023-08-24T15:13:28;95405.66;;;31.92;42.62
10652;BME280;5374;42.742;23.266;2023-08-24T15:16:15;95409.56;;;31.84;42.52
10652;BME280;5374;42.742;23.266;2023-08-24T15:19:03;95414.22;;;31.73;43.00
10652;BME280;5374;42.742;23.266;2023-08-24T15:21:50;95413.88;;;31.78;42.98
10652;BME280;5374;42.742;23.266;2023-08-24T15:24:37;95412.28;;;31.77;43.47
10652;BME280;5374;42.742;23.266;2023-08-24T15:27:24;95423.22;;;31.70;43.81
10652;BME280;5374;42.742;23.266;2023-08-24T15:30:13;95420.81;;;31.58;43.53
10652;BME280;5374;42.742;23.266;2023-08-24T15:33:00;95423.16;;;31.56;43.33
10652;BME280;5374;42.742;23.266;2023-08-24T15:35:48;95431.31;;;31.45;44.94
10652;BME280;5374;42.742;23.266;2023-08-24T15:38:35;95426.56;;;31.32;44.13
10652;BME280;5374;42.742;23.266;2023-08-24T15:41:22;95413.91;;;31.20;44.20
10652;BME280;5374;42.742;23.266;2023-08-24T15:44:09;95407.94;;;31.07;44.07
10652;BME280;5374;42.742;23.266;2023-08-24T15:46:58;95419.22;;;30.91;44.30
10652;BME280;5374;42.742;23.266;2023-08-24T15:49:45;95417.53;;;30.80;44.71
10652;BME280;5374;42.742;23.266;2023-08-24T15:52:32;95425.25;;;30.64;45.09
10652;BME280;5374;42.742;23.266;2023-08-24T15:55:19;95413.72;;;30.51;45.35
10652;BME280;5374;42.742;23.266;2023-08-24T15:58:06;95423.91;;;30.50;45.83
10652;BME280;5374;42.742;23.266;2023-08-24T16:00:53;95434.00;;;30.39;45.71
10652;BME280;5374;42.742;23.266;2023-08-24T16:03:42;95427.97;;;30.23;46.19
10652;BME280;5374;42.742;23.266;2023-08-24T16:06:29;95443.97;;;30.17;46.39
10652;BME280;5374;42.742;23.266;2023-08-24T16:09:16;95446.19;;;30.08;46.75
10652;BME280;5374;42.742;23.266;2023-08-24T16:12:03;95440.66;;;30.01;46.76
10652;BME280;5374;42.742;23.266;2023-08-24T16:14:50;95441.31;;;29.94;47.23
10652;BME280;5374;42.742;23.266;2023-08-24T16:17:37;95442.47;;;29.93;47.36
10652;BME280;5374;42.742;23.266;2023-08-24T16:20:26;95448.59;;;29.83;47.78
10652;BME280;5374;42.742;23.266;2023-08-24T16:23:13;95447.38;;;29.77;48.13
10652;BME280;5374;42.742;23.266;2023-08-24T16:26:00;95438.25;;;29.66;48.52
10652;BME280;5374;42.742;23.266;2023-08-24T16:28:48;95432.28;;;29.57;49.18
10652;BME280;5374;42.742;23.266;2023-08-24T16:31:35;95431.00;;;29.51;49.19
10652;BME280;5374;42.742;23.266;2023-08-24T16:34:23;95412.84;;;29.39;49.70
10652;BME280;5374;42.742;23.266;2023-08-24T16:37:11;95434.00;;;29.42;49.63
10652;BME280;5374;42.742;23.266;2023-08-24T16:39:58;95422.91;;;29.32;49.82
10652;BME280;5374;42.742;23.266;2023-08-24T16:42:45;95421.38;;;29.34;50.23
10652;BME280;5374;42.742;23.266;2023-08-24T16:45:33;95424.44;;;29.29;50.62
10652;BME280;5374;42.742;23.266;2023-08-24T16:48:21;95413.34;;;29.18;50.78
10652;BME280;5374;42.742;23.266;2023-08-24T16:51:08;95425.06;;;29.19;51.07
10652;BME280;5374;42.742;23.266;2023-08-24T16:53:56;95409.34;;;29.12;51.22
10652;BME280;5374;42.742;23.266;2023-08-24T16:56:44;95405.72;;;29.05;51.43
10652;BME280;5374;42.742;23.266;2023-08-24T16:59:31;95408.34;;;28.98;51.62
10652;BME280;5374;42.742;23.266;2023-08-24T17:02:18;95403.59;;;28.91;51.88
10652;BME280;5374;42.742;23.266;2023-08-24T17:05:06;95404.25;;;28.84;52.40
10652;BME280;5374;42.742;23.266;2023-08-24T17:08:04;95401.72;;;28.76;52.92
10652;BME280;5374;42.742;23.266;2023-08-24T17:10:54;95400.06;;;28.68;52.69
10652;BME280;5374;42.742;23.266;2023-08-24T17:13:41;95401.59;;;28.65;52.87
10652;BME280;5374;42.742;23.266;2023-08-24T17:16:28;95411.59;;;28.57;53.38
10652;BME280;5374;42.742;23.266;2023-08-24T17:19:15;95400.75;;;28.38;54.32
10652;BME280;5374;42.742;23.266;2023-08-24T17:22:02;95414.69;;;28.33;54.54
10652;BME280;5374;42.742;23.266;2023-08-24T17:24:50;95413.41;;;28.27;54.59
10652;BME280;5374;42.742;23.266;2023-08-24T17:27:38;95409.69;;;28.16;55.17
10652;BME280;5374;42.742;23.266;2023-08-24T17:30:25;95416.94;;;28.08;55.02
10652;BME280;5374;42.742;23.266;2023-08-24T17:33:12;95415.91;;;27.94;55.35
10652;BME280;5374;42.742;23.266;2023-08-24T17:36:00;95422.44;;;27.89;55.55
10652;BME280;5374;42.742;23.266;2023-08-24T17:38:47;95435.31;;;27.88;55.76
10652;BME280;5374;42.742;23.266;2023-08-24T17:41:36;95432.72;;;27.76;55.91
10652;BME280;5374;42.742;23.266;2023-08-24T17:44:25;95443.34;;;27.81;56.43
10652;BME280;5374;42.742;23.266;2023-08-24T17:47:15;95429.41;;;27.67;56.97
10652;BME280;5374;42.742;23.266;2023-08-24T17:50:03;95445.34;;;27.65;57.13
10652;BME280;5374;42.742;23.266;2023-08-24T17:52:51;95447.06;;;27.54;58.07
10652;BME280;5374;42.742;23.266;2023-08-24T17:55:38;95442.16;;;27.44;58.11
10652;BME280;5374;42.742;23.266;2023-08-24T17:58:26;95445.88;;;27.36;58.38
10652;BME280;5374;42.742;23.266;2023-08-24T18:01:15;95435.25;;;27.31;58.74
10652;BME280;5374;42.742;23.266;2023-08-24T18:04:02;95439.41;;;27.24;59.08
10652;BME280;5374;42.742;23.266;2023-08-24T18:06:49;95441.59;;;27.19;59.48
10652;BME280;5374;42.742;23.266;2023-08-24T18:09:36;95416.31;;;27.03;59.79
10652;BME280;5374;42.742;23.266;2023-08-24T18:12:24;95428.38;;;27.02;60.29
10652;BME280;5374;42.742;23.266;2023-08-24T18:15:11;95434.19;;;27.00;60.53
10652;BME280;5374;42.742;23.266;2023-08-24T18:18:00;95447.28;;;26.95;60.80
10652;BME280;5374;42.742;23.266;2023-08-24T18:20:47;95439.34;;;26.89;61.12
10652;BME280;5374;42.742;23.266;2023-08-24T18:23:34;95343.13;;;26.22;61.91
10652;BME280;5374;42.742;23.266;2023-08-24T18:26:22;95444.47;;;26.75;61.57
10652;BME280;5374;42.742;23.266;2023-08-24T18:29:09;95449.03;;;26.71;61.81
10652;BME280;5374;42.742;23.266;2023-08-24T18:31:56;95457.56;;;26.70;61.87